createdAt,value
2019-03-30T00:00:02.366Z,10.78
2019-03-30T00:05:02.989Z,11.18
2019-03-30T00:10:02.493Z,11.05
2019-03-30T00:15:02.839Z,10.88
2019-03-30T00:20:03.277Z,10.53
2019-03-30T00:25:02.686Z,10.58
2019-03-30T00:30:03.141Z,10.63
2019-03-30T00:35:02.483Z,9.60
2019-03-30T00:40:03.000Z,8.93
2019-03-30T00:45:02.425Z,9.23
2019-03-30T00:50:02.855Z,10.13
2019-03-30T00:55:03.199Z,9.65
2019-03-30T01:00:02.520Z,9.15
2019-03-30T01:05:02.552Z,8.55
2019-03-30T01:10:02.990Z,9.65
2019-03-30T01:15:02.321Z,7.70
2019-03-30T01:20:03.737Z,7.95
2019-03-30T01:25:03.221Z,9.08
2019-03-30T01:30:02.617Z,8.35
2019-03-30T01:35:03.086Z,9.00
2019-03-30T01:40:02.568Z,9.23
2019-03-30T01:45:02.918Z,8.08
2019-03-30T01:50:16.530Z,7.03
2019-03-30T01:55:03.290Z,7.72
2019-03-30T02:00:02.623Z,8.10
2019-03-30T02:05:03.058Z,8.15
2019-03-30T02:10:02.474Z,7.60
2019-03-30T02:15:02.841Z,7.47
2019-03-30T02:20:03.178Z,6.70
2019-03-30T02:25:02.564Z,7.53
2019-03-30T02:30:02.917Z,6.92
2019-03-30T02:35:03.363Z,7.35
2019-03-30T02:40:02.771Z,6.25
2019-03-30T02:45:03.123Z,6.83
2019-03-30T02:50:02.535Z,7.58
2019-03-30T02:55:02.887Z,7.30
2019-03-30T03:00:03.331Z,7.22
2019-03-30T03:05:02.754Z,6.62
2019-03-30T03:10:03.155Z,6.37
2019-03-30T03:15:02.572Z,6.70
2019-03-30T03:20:02.948Z,7.10
2019-03-30T03:25:03.291Z,5.80
2019-03-30T03:30:02.698Z,8.13
2019-03-30T03:35:03.195Z,7.70
2019-03-30T03:40:02.661Z,6.80
2019-03-30T03:45:03.011Z,6.28
2019-03-30T03:50:02.438Z,8.28
2019-03-30T03:55:02.885Z,6.80
2019-03-30T04:00:03.462Z,7.25
2019-03-30T04:05:02.852Z,6.42
2019-03-30T04:10:03.284Z,7.20
2019-03-30T04:15:02.713Z,8.18
2019-03-30T04:20:03.057Z,6.75
2019-03-30T04:25:02.464Z,6.80
2019-03-30T04:30:02.800Z,6.30
2019-03-30T04:35:03.147Z,7.03
2019-03-30T04:40:02.553Z,6.65
2019-03-30T04:45:02.898Z,6.60
2019-03-30T04:50:03.257Z,7.10
2019-03-30T04:55:02.659Z,6.55
2019-03-30T05:00:03.118Z,7.15
2019-03-30T05:05:02.530Z,6.78
2019-03-30T05:10:02.966Z,6.33
2019-03-30T05:15:03.318Z,6.37
2019-03-30T05:20:02.746Z,6.28
2019-03-30T05:25:03.189Z,6.12
2019-03-30T05:30:02.619Z,5.72
2019-03-30T05:35:03.037Z,5.60
2019-03-30T05:40:02.427Z,5.85
2019-03-30T05:45:02.810Z,6.45
2019-03-30T05:50:03.256Z,6.92
2019-03-30T05:55:02.660Z,6.58
2019-03-30T06:00:03.018Z,5.80
2019-03-30T06:05:03.731Z,7.30
2019-03-30T06:10:03.258Z,6.22
2019-03-30T06:15:02.689Z,7.33
2019-03-30T06:20:03.132Z,5.60
2019-03-30T06:25:02.544Z,5.95
2019-03-30T06:30:02.938Z,6.08
2019-03-30T06:35:03.338Z,7.03
2019-03-30T06:40:02.758Z,6.15
2019-03-30T06:45:03.199Z,7.08
2019-03-30T06:50:02.614Z,6.67
2019-03-30T06:55:02.957Z,6.37
2019-03-30T07:00:03.403Z,6.87
2019-03-30T07:05:02.718Z,7.35
2019-03-30T07:10:03.177Z,7.17
2019-03-30T07:15:02.579Z,7.65
2019-03-30T07:20:02.919Z,7.65
2019-03-30T07:25:03.262Z,6.83
2019-03-30T07:30:02.882Z,7.22
2019-03-30T07:35:03.331Z,8.10
2019-03-30T07:40:02.745Z,10.78
2019-03-30T07:45:03.100Z,9.05
2019-03-30T07:50:02.518Z,10.78
2019-03-30T07:55:02.956Z,9.30
2019-03-30T08:00:02.474Z,11.57
2019-03-30T08:05:02.847Z,9.65
2019-03-30T08:10:03.298Z,9.75
2019-03-30T08:15:02.712Z,9.95
2019-03-30T08:20:03.160Z,8.70
2019-03-30T08:25:02.583Z,8.78
2019-03-30T08:30:03.012Z,7.20
2019-03-30T08:35:02.410Z,11.50
2019-03-30T08:40:02.891Z,9.03
2019-03-30T08:45:03.297Z,9.65
2019-03-30T08:50:02.745Z,6.65
2019-03-30T08:55:03.187Z,9.75
2019-03-30T09:00:02.608Z,11.97
2019-03-30T09:05:03.028Z,12.45
2019-03-30T09:10:02.422Z,10.90
2019-03-30T09:15:02.782Z,8.68
2019-03-30T09:20:03.119Z,9.35
2019-03-30T09:25:02.537Z,14.60
2019-03-30T09:30:03.299Z,8.15
2019-03-30T09:35:01.897Z,0
2019-03-30T09:40:03.387Z,8.80
2019-03-30T09:45:02.768Z,8.93
2019-03-30T09:50:03.170Z,9.83
2019-03-30T09:55:02.530Z,9.88
2019-03-30T10:00:02.976Z,9.85
2019-03-30T10:05:02.386Z,8.33
2019-03-30T10:10:02.838Z,9.45
2019-03-30T10:15:03.314Z,11.12
2019-03-30T10:20:04.594Z,11.70
2019-03-30T10:25:02.399Z,11.88
2019-03-30T10:30:02.767Z,9.85
2019-03-30T10:35:03.250Z,8.43
2019-03-30T10:40:02.733Z,7.40
2019-03-30T10:45:03.068Z,8.88
2019-03-30T10:50:02.494Z,7.12
2019-03-30T10:55:02.935Z,9.78
2019-03-30T11:00:03.303Z,9.90
2019-03-30T11:05:02.698Z,11.50
2019-03-30T11:10:03.132Z,11.45
2019-03-30T11:15:02.544Z,14.00
2019-03-30T11:20:02.989Z,8.68
2019-03-30T11:25:07.692Z,11.93
2019-03-30T11:30:02.862Z,8.70
2019-03-30T11:35:03.331Z,6.50
2019-03-30T11:40:02.724Z,6.75
2019-03-30T11:45:03.157Z,8.10
2019-03-30T11:50:02.584Z,6.17
2019-03-30T11:55:03.032Z,7.92
2019-03-30T12:00:02.438Z,7.15
2019-03-30T12:05:02.788Z,8.15
2019-03-30T12:10:03.217Z,6.87
2019-03-30T12:15:02.553Z,6.10
2019-03-30T12:20:02.978Z,6.50
2019-03-30T12:25:02.435Z,5.55
2019-03-30T12:30:02.792Z,6.25
2019-03-30T12:35:03.186Z,7.83
2019-03-30T12:40:02.613Z,7.20
2019-03-30T12:45:02.944Z,6.92
2019-03-30T12:50:03.289Z,5.25
2019-03-30T12:55:02.746Z,5.62
2019-03-30T13:00:03.151Z,5.97
2019-03-30T13:05:02.558Z,6.12
2019-03-30T13:10:03.011Z,6.58
2019-03-30T13:15:02.438Z,5.45
2019-03-30T13:20:02.875Z,6.55
2019-03-30T13:25:03.319Z,5.92
2019-03-30T13:30:02.742Z,6.05
2019-03-30T13:35:03.172Z,6.67
2019-03-30T13:40:02.588Z,5.58
2019-03-30T13:45:03.476Z,6.10
2019-03-30T13:50:02.379Z,6.03
2019-03-30T13:55:02.800Z,6.12
2019-03-30T14:00:03.245Z,5.65
2019-03-30T14:05:02.591Z,5.72
2019-03-30T14:10:03.092Z,5.12
2019-03-30T14:15:02.510Z,5.28
2019-03-30T14:20:02.862Z,5.92
2019-03-30T14:25:03.302Z,6.45
2019-03-30T14:30:01.831Z,0
2019-03-30T14:35:03.256Z,3.98
2019-03-30T14:40:02.684Z,5.37
2019-03-30T14:45:03.023Z,4.80
2019-03-30T14:50:02.450Z,4.40
2019-03-30T14:55:02.788Z,5.55
2019-03-30T15:00:03.124Z,5.58
2019-03-30T15:05:02.534Z,4.50
2019-03-30T15:10:02.980Z,5.78
2019-03-30T15:15:02.402Z,5.10
2019-03-30T15:20:02.853Z,5.37
2019-03-30T15:25:03.303Z,5.65
2019-03-30T15:30:02.613Z,6.37
2019-03-30T15:35:02.951Z,6.12
2019-03-30T15:40:02.359Z,5.85
2019-03-30T15:45:02.915Z,6.47
2019-03-30T15:50:03.356Z,6.87
2019-03-30T15:55:02.785Z,6.42
2019-03-30T16:00:03.120Z,6.83
2019-03-30T16:05:02.542Z,6.22
2019-03-30T16:10:02.970Z,7.80
2019-03-30T16:15:02.391Z,7.28
2019-03-30T16:20:02.738Z,6.65
2019-03-30T16:25:03.090Z,7.35
2019-03-30T16:30:02.493Z,6.60
2019-03-30T16:35:02.842Z,6.65
2019-03-30T16:40:03.231Z,6.28
2019-03-30T16:45:02.552Z,5.97
2019-03-30T16:50:02.883Z,5.80
2019-03-30T16:55:03.274Z,5.20
2019-03-30T17:00:01.855Z,0
2019-03-30T17:05:03.240Z,5.25
2019-03-30T17:10:02.764Z,6.75
2019-03-30T17:15:03.204Z,7.17
2019-03-30T17:20:02.619Z,6.03
2019-03-30T17:25:03.072Z,6.87
2019-03-30T17:30:02.481Z,6.53
2019-03-30T17:35:02.825Z,6.70
2019-03-30T17:40:03.289Z,6.97
2019-03-30T17:45:02.684Z,10.30
2019-03-30T17:50:03.008Z,16.27
2019-03-30T17:55:02.447Z,13.32
2019-03-30T18:00:02.802Z,12.30
2019-03-30T18:05:03.243Z,9.35
2019-03-30T18:10:03.798Z,12.25
2019-03-30T18:15:02.385Z,9.55
2019-03-30T18:20:02.830Z,8.73
2019-03-30T18:25:03.267Z,10.65
2019-03-30T18:30:02.688Z,11.95
2019-03-30T18:35:03.127Z,12.28
2019-03-30T18:40:02.539Z,12.18
2019-03-30T18:45:02.892Z,13.30
2019-03-30T18:50:03.344Z,12.60
2019-03-30T18:55:02.755Z,14.35
2019-03-30T19:00:03.199Z,12.75
2019-03-30T19:05:02.611Z,14.78
2019-03-30T19:10:03.057Z,18.40
2019-03-30T19:15:02.484Z,21.02
2019-03-30T19:20:02.914Z,19.98
2019-03-30T19:25:03.257Z,18.17
2019-03-30T19:30:02.681Z,15.08
2019-03-30T19:35:02.325Z,0
2019-03-30T19:40:02.752Z,18.65
2019-03-30T19:45:03.186Z,21.07
2019-03-30T19:50:02.524Z,20.65
2019-03-30T19:55:02.962Z,21.55
2019-03-30T20:00:03.392Z,21.48
2019-03-30T20:05:02.813Z,21.97
2019-03-30T20:10:03.208Z,22.22
2019-03-30T20:15:02.561Z,20.43
2019-03-30T20:20:02.912Z,21.30
2019-03-30T20:25:03.357Z,22.60
2019-03-30T20:30:03.079Z,23.20
2019-03-30T20:35:02.512Z,21.60
2019-03-30T20:40:02.939Z,24.98
2019-03-30T20:45:03.288Z,25.17
2019-03-30T20:50:02.631Z,25.00
2019-03-30T20:55:03.045Z,22.62
2019-03-30T21:00:02.459Z,26.10
2019-03-30T21:05:02.810Z,30.37
2019-03-30T21:10:03.248Z,28.15
2019-03-30T21:15:02.656Z,28.55
2019-03-30T21:20:03.114Z,29.77
2019-03-30T21:25:02.528Z,29.48
2019-03-30T21:30:02.972Z,29.60
2019-03-30T21:35:02.381Z,29.55
2019-03-30T21:40:02.844Z,31.68
2019-03-30T21:45:03.292Z,29.90
2019-03-30T21:50:02.695Z,27.60
2019-03-30T21:55:03.145Z,28.92
2019-03-30T22:00:09.895Z,26.68
2019-03-30T22:05:02.500Z,0
2019-03-30T22:10:02.930Z,34.30
2019-03-30T22:15:03.283Z,30.23
2019-03-30T22:20:02.692Z,31.30
2019-03-30T22:25:03.144Z,35.30
2019-03-30T22:30:02.548Z,34.30
2019-03-30T22:35:02.900Z,29.50
2019-03-30T22:40:03.331Z,30.12
2019-03-30T22:45:02.756Z,30.92
2019-03-30T22:50:03.100Z,30.65
2019-03-30T22:55:02.527Z,28.27
2019-03-30T23:00:02.877Z,27.55
2019-03-30T23:05:03.312Z,28.95
2019-03-30T23:10:02.828Z,29.55
2019-03-30T23:15:03.271Z,30.68
2019-03-30T23:20:02.680Z,28.80
2019-03-30T23:25:03.141Z,28.23
2019-03-30T23:30:02.546Z,33.00
2019-03-30T23:35:02.899Z,31.25
2019-03-30T23:40:03.339Z,32.38
2019-03-30T23:45:02.759Z,30.10
2019-03-30T23:50:03.194Z,30.70
2019-03-30T23:55:02.622Z,31.55
